Sauquoit, NY

2:03 AM EST on November 26, 2014 (GMT -0500)
Washington Mills | Change Station
CLOSE
Current Station
Personal Weather Station
Location: New Hartford, NY
Elevation: 902 ft
Nearby Weather Stations

Elev 902 ft 43.04 °N, 75.25 °W | Updated 24 seconds ago

Overcast
Overcast
34.5 °F
Feels Like 34 °F
N
0.2
Wind Variable Wind from WNW
Gusts 2.3 mph

Today
High -- | Low -- °F
--% Chance of Precip.
Yesterday
High -- | Low -- °F
Precip. -- in
7:06 AM 4:29 PM
Waxing Crescent, 17% visible
Pressure 30.22 in
Visibility 10.0 miles
Clouds Overcast 4400 ft
Windchill 34 °F
Dew Point 28 °F
Humidity 77%
Rainfall 0.00 in
Snow Depth Not available.
UV 0.0 out of 12
Pollen .10 out of 12
Air Quality Not available.
Flu Activity Not available.
METAR KRME 260653Z AUTO 28005KT 10SM OVC044 02/M02 A3022 RMK AO2 SLP234 T00221022

More Conditions Fewer Conditions

Pressure 30.22 in
Visibility 10.0 miles
Clouds Overcast 4400 ft
Windchill 34 °F
Dew Point 28 °F
Humidity 77%
Rainfall 0.00 in
Snow Depth Not available.
UV 0.0 out of 12
Pollen .10 out of 12
Air Quality Not available.
Flu Activity Not available.
METAR KRME 260653Z AUTO 28005KT 10SM OVC044 02/M02 A3022 RMK AO2 SLP234 T00221022

More Conditions Fewer Conditions

10-Day Weather Forecast

Almanac

Astronomy

Nov. 26, 2014 Rise Set
Actual Time
Civil Twilight
Nautical Twilight
Astronomical Twilight
Moon
Length of Visible Light
Length of Day
Tomorrow will be .
, % of the Moon is Illuminated

Today's Extremes

State Highs State Lows

Community

WunderPhotos

Upload Photos

1,773,694 photos uploaded!

WunderBlogs® & News

Nearby

Air Quality

  Air Quality AQ Index Pollutant
Not available.

Snow Depth

Station Depth Elevation

Earthquake Activity

City Distance Mag. Time & Date
Minimum magnitude displayed is 2.5.

Coastal Water Temperatures

Place Temperature

Nearby Weather Stations